sensor_id;sensor_type;location;lat;lon;timestamp;temperature;humidity
69938;DHT22;57248;47.320;15.998;2024-03-06T00:00:02;2.15;95.49
69938;DHT22;57248;47.320;15.998;2024-03-06T00:02:35;2.17;95.91
69938;DHT22;57248;47.320;15.998;2024-03-06T00:05:07;2.14;95.48
69938;DHT22;57248;47.320;15.998;2024-03-06T00:07:46;2.11;95.15
69938;DHT22;57248;47.320;15.998;2024-03-06T00:10:18;2.03;94.41
69938;DHT22;57248;47.320;15.998;2024-03-06T00:12:50;2.03;95.24
69938;DHT22;57248;47.320;15.998;2024-03-06T00:15:23;2.03;95.35
69938;DHT22;57248;47.320;15.998;2024-03-06T00:17:55;1.97;94.67
69938;DHT22;57248;47.320;15.998;2024-03-06T00:20:27;1.92;94.07
69938;DHT22;57248;47.320;15.998;2024-03-06T00:23:00;1.86;93.91
69938;DHT22;57248;47.320;15.998;2024-03-06T00:25:32;1.83;94.56
69938;DHT22;57248;47.320;15.998;2024-03-06T00:28:04;1.76;94.00
69938;DHT22;57248;47.320;15.998;2024-03-06T00:30:37;1.77;94.68
69938;DHT22;57248;47.320;15.998;2024-03-06T00:33:09;1.67;95.13
69938;DHT22;57248;47.320;15.998;2024-03-06T00:35:42;1.69;95.14
69938;DHT22;57248;47.320;15.998;2024-03-06T00:38:07;1.63;95.03
69938;DHT22;57248;47.320;15.998;2024-03-06T00:40:39;1.38;96.25
69938;DHT22;57248;47.320;15.998;2024-03-06T00:43:12;1.45;97.14
69938;DHT22;57248;47.320;15.998;2024-03-06T00:45:44;1.58;96.99
69938;DHT22;57248;47.320;15.998;2024-03-06T00:48:10;1.63;97.08
69938;DHT22;57248;47.320;15.998;2024-03-06T00:50:42;1.65;97.08
69938;DHT22;57248;47.320;15.998;2024-03-06T00:53:14;1.52;95.98
69938;DHT22;57248;47.320;15.998;2024-03-06T00:55:46;1.49;95.02
69938;DHT22;57248;47.320;15.998;2024-03-06T00:58:18;1.42;94.87
69938;DHT22;57248;47.320;15.998;2024-03-06T01:00:50;1.41;94.41
69938;DHT22;57248;47.320;15.998;2024-03-06T01:03:22;1.36;94.55
69938;DHT22;57248;47.320;15.998;2024-03-06T01:05:54;1.44;96.01
69938;DHT22;57248;47.320;15.998;2024-03-06T01:08:33;1.45;95.53
69938;DHT22;57248;47.320;15.998;2024-03-06T01:11:05;1.42;95.58
69938;DHT22;57248;47.320;15.998;2024-03-06T01:13:38;1.32;94.58
69938;DHT22;57248;47.320;15.998;2024-03-06T01:16:04;1.20;94.66
69938;DHT22;57248;47.320;15.998;2024-03-06T01:18:37;1.01;96.17
69938;DHT22;57248;47.320;15.998;2024-03-06T01:21:09;1.11;97.13
69938;DHT22;57248;47.320;15.998;2024-03-06T01:23:42;1.15;96.97
69938;DHT22;57248;47.320;15.998;2024-03-06T01:26:15;1.27;97.07
69938;DHT22;57248;47.320;15.998;2024-03-06T01:28:48;1.24;96.89
69938;DHT22;57248;47.320;15.998;2024-03-06T01:31:20;1.24;97.03
69938;DHT22;57248;47.320;15.998;2024-03-06T01:33:52;1.28;96.88
69938;DHT22;57248;47.320;15.998;2024-03-06T01:36:18;1.24;96.21
69938;DHT22;57248;47.320;15.998;2024-03-06T01:38:50;1.14;95.60
69938;DHT22;57248;47.320;15.998;2024-03-06T01:41:22;1.05;95.35
69938;DHT22;57248;47.320;15.998;2024-03-06T01:43:54;0.95;94.99
69938;DHT22;57248;47.320;15.998;2024-03-06T01:46:33;0.95;94.59
69938;DHT22;57248;47.320;15.998;2024-03-06T01:49:05;0.85;94.47
69938;DHT22;57248;47.320;15.998;2024-03-06T01:51:37;0.79;95.33
69938;DHT22;57248;47.320;15.998;2024-03-06T01:54:03;0.80;95.55
69938;DHT22;57248;47.320;15.998;2024-03-06T01:56:38;0.79;95.61
69938;DHT22;57248;47.320;15.998;2024-03-06T01:59:15;0.79;95.34
69938;DHT22;57248;47.320;15.998;2024-03-06T02:01:41;0.80;95.59
69938;DHT22;57248;47.320;15.998;2024-03-06T02:04:14;0.76;95.73
69938;DHT22;57248;47.320;15.998;2024-03-06T02:06:47;0.83;97.04
69938;DHT22;57248;47.320;15.998;2024-03-06T02:09:26;1.21;97.78
69938;DHT22;57248;47.320;15.998;2024-03-06T02:11:58;0.98;96.76
69938;DHT22;57248;47.320;15.998;2024-03-06T02:14:30;0.83;96.38
69938;DHT22;57248;47.320;15.998;2024-03-06T02:17:02;0.84;95.99
69938;DHT22;57248;47.320;15.998;2024-03-06T02:19:41;0.50;95.89
69938;DHT22;57248;47.320;15.998;2024-03-06T02:22:13;0.66;96.35
69938;DHT22;57248;47.320;15.998;2024-03-06T02:24:43;0.63;96.53
69938;DHT22;57248;47.320;15.998;2024-03-06T02:27:16;0.54;96.87
69938;DHT22;57248;47.320;15.998;2024-03-06T02:29:48;0.67;97.79
69938;DHT22;57248;47.320;15.998;2024-03-06T02:32:20;0.70;97.84
69938;DHT22;57248;47.320;15.998;2024-03-06T02:34:53;0.80;98.07
69938;DHT22;57248;47.320;15.998;2024-03-06T02:37:25;0.83;98.10
69938;DHT22;57248;47.320;15.998;2024-03-06T02:39:58;0.80;97.42
69938;DHT22;57248;47.320;15.998;2024-03-06T02:42:24;0.73;96.93
69938;DHT22;57248;47.320;15.998;2024-03-06T02:44:56;0.95;98.28
69938;DHT22;57248;47.320;15.998;2024-03-06T02:47:28;0.81;97.91
69938;DHT22;57248;47.320;15.998;2024-03-06T02:49:54;0.63;97.34
69938;DHT22;57248;47.320;15.998;2024-03-06T02:52:25;0.57;97.44
69938;DHT22;57248;47.320;15.998;2024-03-06T02:54:57;0.60;97.21
69938;DHT22;57248;47.320;15.998;2024-03-06T02:57:29;0.63;97.01
69938;DHT22;57248;47.320;15.998;2024-03-06T03:00:03;0.62;96.99
69938;DHT22;57248;47.320;15.998;2024-03-06T03:02:35;0.53;96.85
69938;DHT22;57248;47.320;15.998;2024-03-06T03:05:14;0.46;98.03
69938;DHT22;57248;47.320;15.998;2024-03-06T03:07:46;0.56;98.08
69938;DHT22;57248;47.320;15.998;2024-03-06T03:10:25;0.45;97.29
69938;DHT22;57248;47.320;15.998;2024-03-06T03:12:51;0.45;97.69
69938;DHT22;57248;47.320;15.998;2024-03-06T03:15:24;0.48;97.48
69938;DHT22;57248;47.320;15.998;2024-03-06T03:17:56;0.43;96.57
69938;DHT22;57248;47.320;15.998;2024-03-06T03:20:28;0.38;96.75
69938;DHT22;57248;47.320;15.998;2024-03-06T03:23:00;0.42;97.69
69938;DHT22;57248;47.320;15.998;2024-03-06T03:25:33;0.49;98.25
69938;DHT22;57248;47.320;15.998;2024-03-06T03:28:05;0.45;98.21
69938;DHT22;57248;47.320;15.998;2024-03-06T03:30:37;0.50;97.82
69938;DHT22;57248;47.320;15.998;2024-03-06T03:33:09;0.33;97.22
69938;DHT22;57248;47.320;15.998;2024-03-06T03:35:41;0.28;96.78
69938;DHT22;57248;47.320;15.998;2024-03-06T03:38:07;0.23;96.44
69938;DHT22;57248;47.320;15.998;2024-03-06T03:40:38;0.12;96.48
69938;DHT22;57248;47.320;15.998;2024-03-06T03:43:10;0.11;96.83
69938;DHT22;57248;47.320;15.998;2024-03-06T03:45:36;0.08;97.06
69938;DHT22;57248;47.320;15.998;2024-03-06T03:48:08;0.09;96.91
69938;DHT22;57248;47.320;15.998;2024-03-06T03:50:40;-0.01;97.03
69938;DHT22;57248;47.320;15.998;2024-03-06T03:53:12;0.01;97.09
69938;DHT22;57248;47.320;15.998;2024-03-06T03:55:44;-0.01;97.22
69938;DHT22;57248;47.320;15.998;2024-03-06T03:58:16;-0.02;96.88
69938;DHT22;57248;47.320;15.998;2024-03-06T04:00:48;0.01;97.03
69938;DHT22;57248;47.320;15.998;2024-03-06T04:03:24;0.04;96.87
69938;DHT22;57248;47.320;15.998;2024-03-06T04:06:03;-0.07;97.28
69938;DHT22;57248;47.320;15.998;2024-03-06T04:08:49;0.01;97.31
69938;DHT22;57248;47.320;15.998;2024-03-06T04:11:21;-0.09;96.59
69938;DHT22;57248;47.320;15.998;2024-03-06T04:13:47;-0.05;96.78
69938;DHT22;57248;47.320;15.998;2024-03-06T04:16:19;-0.17;96.51
69938;DHT22;57248;47.320;15.998;2024-03-06T04:18:51;-0.22;96.34
69938;DHT22;57248;47.320;15.998;2024-03-06T04:21:23;-0.27;96.29
69938;DHT22;57248;47.320;15.998;2024-03-06T04:23:56;-0.32;96.33
69938;DHT22;57248;47.320;15.998;2024-03-06T04:26:29;-0.34;97.07
69938;DHT22;57248;47.320;15.998;2024-03-06T04:29:01;-0.32;97.48
69938;DHT22;57248;47.320;15.998;2024-03-06T04:31:35;-0.20;98.47
69938;DHT22;57248;47.320;15.998;2024-03-06T04:34:07;-0.13;98.09
69938;DHT22;57248;47.320;15.998;2024-03-06T04:36:39;-0.22;97.57
69938;DHT22;57248;47.320;15.998;2024-03-06T04:39:11;-0.34;97.10
69938;DHT22;57248;47.320;15.998;2024-03-06T04:41:37;-0.36;96.94
69938;DHT22;57248;47.320;15.998;2024-03-06T04:44:09;-0.36;97.20
69938;DHT22;57248;47.320;15.998;2024-03-06T04:46:41;-0.29;97.83
69938;DHT22;57248;47.320;15.998;2024-03-06T04:49:13;-0.43;97.92
69938;DHT22;57248;47.320;15.998;2024-03-06T04:51:45;-0.40;97.47
69938;DHT22;57248;47.320;15.998;2024-03-06T04:54:17;-0.41;97.48
69938;DHT22;57248;47.320;15.998;2024-03-06T04:56:51;-0.40;97.20
69938;DHT22;57248;47.320;15.998;2024-03-06T04:59:22;-0.47;97.91
69938;DHT22;57248;47.320;15.998;2024-03-06T05:01:48;-0.50;98.01
69938;DHT22;57248;47.320;15.998;2024-03-06T05:04:19;-0.46;98.18
69938;DHT22;57248;47.320;15.998;2024-03-06T05:06:51;-0.46;97.82
69938;DHT22;57248;47.320;15.998;2024-03-06T05:09:30;-0.43;98.37
69938;DHT22;57248;47.320;15.998;2024-03-06T05:12:02;-0.40;98.77
69938;DHT22;57248;47.320;15.998;2024-03-06T05:14:34;-0.37;97.96
69938;DHT22;57248;47.320;15.998;2024-03-06T05:17:01;-0.47;97.43
69938;DHT22;57248;47.320;15.998;2024-03-06T05:19:33;-0.43;97.73
69938;DHT22;57248;47.320;15.998;2024-03-06T05:22:06;-0.46;98.37
69938;DHT22;57248;47.320;15.998;2024-03-06T05:24:38;-0.32;98.57
69938;DHT22;57248;47.320;15.998;2024-03-06T05:27:11;-0.34;97.79
69938;DHT22;57248;47.320;15.998;2024-03-06T05:29:48;-0.46;97.22
69938;DHT22;57248;47.320;15.998;2024-03-06T05:32:21;-0.41;97.24
69938;DHT22;57248;47.320;15.998;2024-03-06T05:34:53;-0.29;97.80
69938;DHT22;57248;47.320;15.998;2024-03-06T05:37:25;-0.25;97.41
69938;DHT22;57248;47.320;15.998;2024-03-06T05:39:57;-0.09;97.13
69938;DHT22;57248;47.320;15.998;2024-03-06T05:42:29;-0.20;96.67
69938;DHT22;57248;47.320;15.998;2024-03-06T05:45:02;-0.02;97.07
69938;DHT22;57248;47.320;15.998;2024-03-06T05:47:37;0.04;96.95
69938;DHT22;57248;47.320;15.998;2024-03-06T05:50:16;0.23;96.99
69938;DHT22;57248;47.320;15.998;2024-03-06T05:52:48;0.38;97.03
69938;DHT22;57248;47.320;15.998;2024-03-06T05:55:20;0.49;96.90
69938;DHT22;57248;47.320;15.998;2024-03-06T05:57:53;0.57;96.80
69938;DHT22;57248;47.320;15.998;2024-03-06T06:00:25;0.67;96.65
69938;DHT22;57248;47.320;15.998;2024-03-06T06:02:57;0.88;96.34
69938;DHT22;57248;47.320;15.998;2024-03-06T06:05:38;0.87;96.89
69938;DHT22;57248;47.320;15.998;2024-03-06T06:08:14;1.11;96.38
69938;DHT22;57248;47.320;15.998;2024-03-06T06:10:47;4.87;99.99
69938;DHT22;57248;47.320;15.998;2024-03-06T06:13:13;2.59;96.68
69938;DHT22;57248;47.320;15.998;2024-03-06T06:15:46;4.44;99.99
69938;DHT22;57248;47.320;15.998;2024-03-06T06:18:18;2.52;95.53
69938;DHT22;57248;47.320;15.998;2024-03-06T06:20:50;1.86;95.36
69938;DHT22;57248;47.320;15.998;2024-03-06T06:23:22;1.70;95.60
69938;DHT22;57248;47.320;15.998;2024-03-06T06:25:55;1.65;95.31
69938;DHT22;57248;47.320;15.998;2024-03-06T06:28:28;1.67;95.46
69938;DHT22;57248;47.320;15.998;2024-03-06T06:30:54;1.73;95.19
69938;DHT22;57248;47.320;15.998;2024-03-06T06:33:26;1.76;94.82
69938;DHT22;57248;47.320;15.998;2024-03-06T06:35:59;1.79;95.05
69938;DHT22;57248;47.320;15.998;2024-03-06T06:38:25;1.77;94.70
69938;DHT22;57248;47.320;15.998;2024-03-06T06:40:57;2.00;94.44
69938;DHT22;57248;47.320;15.998;2024-03-06T06:43:29;2.04;94.82
69938;DHT22;57248;47.320;15.998;2024-03-06T06:46:02;2.24;94.40
69938;DHT22;57248;47.320;15.998;2024-03-06T06:48:36;2.95;93.06
69938;DHT22;57248;47.320;15.998;2024-03-06T06:51:08;3.70;92.18
69938;DHT22;57248;47.320;15.998;2024-03-06T06:53:40;4.54;91.95
69938;DHT22;57248;47.320;15.998;2024-03-06T06:56:13;3.50;90.92
69938;DHT22;57248;47.320;15.998;2024-03-06T06:58:39;3.44;91.64
69938;DHT22;57248;47.320;15.998;2024-03-06T07:01:14;3.71;90.36
69938;DHT22;57248;47.320;15.998;2024-03-06T07:03:48;3.53;90.92
69938;DHT22;57248;47.320;15.998;2024-03-06T07:06:20;3.67;90.86
69938;DHT22;57248;47.320;15.998;2024-03-06T07:08:59;3.63;91.01
69938;DHT22;57248;47.320;15.998;2024-03-06T07:11:33;3.64;90.19
69938;DHT22;57248;47.320;15.998;2024-03-06T07:14:04;3.57;90.80
69938;DHT22;57248;47.320;15.998;2024-03-06T07:16:44;3.64;90.71
69938;DHT22;57248;47.320;15.998;2024-03-06T07:19:18;3.70;91.35
69938;DHT22;57248;47.320;15.998;2024-03-06T07:21:49;3.88;91.07
69938;DHT22;57248;47.320;15.998;2024-03-06T07:24:21;4.03;91.13
69938;DHT22;57248;47.320;15.998;2024-03-06T07:26:53;4.12;91.07
69938;DHT22;57248;47.320;15.998;2024-03-06T07:29:25;4.16;90.11
69938;DHT22;57248;47.320;15.998;2024-03-06T07:31:51;4.29;90.06
69938;DHT22;57248;47.320;15.998;2024-03-06T07:34:24;4.56;89.48
69938;DHT22;57248;47.320;15.998;2024-03-06T07:36:50;4.81;89.27
69938;DHT22;57248;47.320;15.998;2024-03-06T07:39:22;5.05;88.94
69938;DHT22;57248;47.320;15.998;2024-03-06T07:41:54;5.43;88.29
69938;DHT22;57248;47.320;15.998;2024-03-06T07:44:26;5.50;87.32
69938;DHT22;57248;47.320;15.998;2024-03-06T07:47:05;6.04;86.53
69938;DHT22;57248;47.320;15.998;2024-03-06T07:49:38;6.52;86.15
69938;DHT22;57248;47.320;15.998;2024-03-06T07:52:10;6.56;85.50
69938;DHT22;57248;47.320;15.998;2024-03-06T07:54:42;7.01;85.25
69938;DHT22;57248;47.320;15.998;2024-03-06T07:57:14;7.18;84.85
69938;DHT22;57248;47.320;15.998;2024-03-06T08:00:07;7.14;84.22
69938;DHT22;57248;47.320;15.998;2024-03-06T08:02:52;7.31;84.09
69938;DHT22;57248;47.320;15.998;2024-03-06T08:05:40;7.66;82.80
69938;DHT22;57248;47.320;15.998;2024-03-06T08:08:20;7.79;83.14
69938;DHT22;57248;47.320;15.998;2024-03-06T08:10:53;8.24;83.75
69938;DHT22;57248;47.320;15.998;2024-03-06T08:13:25;8.47;82.71
69938;DHT22;57248;47.320;15.998;2024-03-06T08:15:57;8.40;81.85
69938;DHT22;57248;47.320;15.998;2024-03-06T08:18:23;9.57;80.47
69938;DHT22;57248;47.320;15.998;2024-03-06T08:20:55;9.67;80.02
69938;DHT22;57248;47.320;15.998;2024-03-06T08:23:27;9.61;80.54
69938;DHT22;57248;47.320;15.998;2024-03-06T08:25:59;9.99;79.44
69938;DHT22;57248;47.320;15.998;2024-03-06T08:28:31;10.39;79.35
69938;DHT22;57248;47.320;15.998;2024-03-06T08:31:03;10.09;79.05
69938;DHT22;57248;47.320;15.998;2024-03-06T08:33:35;10.56;78.03
69938;DHT22;57248;47.320;15.998;2024-03-06T08:36:07;10.31;77.45
69938;DHT22;57248;47.320;15.998;2024-03-06T08:38:39;11.14;76.35
69938;DHT22;57248;47.320;15.998;2024-03-06T08:41:13;11.83;74.90
69938;DHT22;57248;47.320;15.998;2024-03-06T08:43:45;12.42;73.62
69938;DHT22;57248;47.320;15.998;2024-03-06T08:46:17;12.36;71.84
69938;DHT22;57248;47.320;15.998;2024-03-06T08:48:49;11.73;74.70
69938;DHT22;57248;47.320;15.998;2024-03-06T08:51:21;12.51;73.33
69938;DHT22;57248;47.320;15.998;2024-03-06T08:53:53;12.06;73.20
69938;DHT22;57248;47.320;15.998;2024-03-06T08:56:26;11.89;72.79
69938;DHT22;57248;47.320;15.998;2024-03-06T08:58:51;12.20;72.28
69938;DHT22;57248;47.320;15.998;2024-03-06T09:01:23;14.25;66.49
69938;DHT22;57248;47.320;15.998;2024-03-06T09:03:57;11.93;69.89
69938;DHT22;57248;47.320;15.998;2024-03-06T09:06:30;15.73;61.64
69938;DHT22;57248;47.320;15.998;2024-03-06T09:09:10;14.88;59.28
69938;DHT22;57248;47.320;15.998;2024-03-06T09:11:43;13.88;61.25
69938;DHT22;57248;47.320;15.998;2024-03-06T09:14:15;14.05;63.34
69938;DHT22;57248;47.320;15.998;2024-03-06T09:16:48;13.23;59.64
69938;DHT22;57248;47.320;15.998;2024-03-06T09:19:20;13.29;61.43
69938;DHT22;57248;47.320;15.998;2024-03-06T09:21:52;13.75;60.47
69938;DHT22;57248;47.320;15.998;2024-03-06T09:24:25;13.40;60.59
69938;DHT22;57248;47.320;15.998;2024-03-06T09:26:59;14.17;59.98
69938;DHT22;57248;47.320;15.998;2024-03-06T09:29:30;14.40;60.25
69938;DHT22;57248;47.320;15.998;2024-03-06T09:32:02;14.07;58.69
69938;DHT22;57248;47.320;15.998;2024-03-06T09:34:34;13.53;58.99
69938;DHT22;57248;47.320;15.998;2024-03-06T09:37:06;13.19;60.62
69938;DHT22;57248;47.320;15.998;2024-03-06T09:39:38;13.54;60.00
69938;DHT22;57248;47.320;15.998;2024-03-06T09:42:10;13.78;62.47
69938;DHT22;57248;47.320;15.998;2024-03-06T09:44:43;14.08;59.45
69938;DHT22;57248;47.320;15.998;2024-03-06T09:47:21;13.61;60.15
69938;DHT22;57248;47.320;15.998;2024-03-06T09:49:54;13.88;58.50
69938;DHT22;57248;47.320;15.998;2024-03-06T09:52:26;13.27;58.43
69938;DHT22;57248;47.320;15.998;2024-03-06T09:54:59;13.49;59.40
69938;DHT22;57248;47.320;15.998;2024-03-06T09:57:31;12.85;60.64
69938;DHT22;57248;47.320;15.998;2024-03-06T10:00:06;13.00;60.12
69938;DHT22;57248;47.320;15.998;2024-03-06T10:03:00;13.12;58.66
69938;DHT22;57248;47.320;15.998;2024-03-06T10:05:32;13.47;59.24
69938;DHT22;57248;47.320;15.998;2024-03-06T10:08:11;13.19;58.29
69938;DHT22;57248;47.320;15.998;2024-03-06T10:10:45;13.09;58.92
69938;DHT22;57248;47.320;15.998;2024-03-06T10:13:23;13.74;58.72
69938;DHT22;57248;47.320;15.998;2024-03-06T10:16:01;14.55;58.77
69938;DHT22;57248;47.320;15.998;2024-03-06T10:18:35;16.06;63.11
69938;DHT22;57248;47.320;15.998;2024-03-06T10:21:10;16.44;53.33
69938;DHT22;57248;47.320;15.998;2024-03-06T10:23:42;14.56;57.31
69938;DHT22;57248;47.320;15.998;2024-03-06T10:26:14;14.09;55.85
69938;DHT22;57248;47.320;15.998;2024-03-06T10:28:46;14.66;56.06
69938;DHT22;57248;47.320;15.998;2024-03-06T10:31:12;14.48;56.77
69938;DHT22;57248;47.320;15.998;2024-03-06T10:33:44;14.32;57.61
69938;DHT22;57248;47.320;15.998;2024-03-06T10:36:16;14.53;56.76
69938;DHT22;57248;47.320;15.998;2024-03-06T10:38:50;14.84;55.48
69938;DHT22;57248;47.320;15.998;2024-03-06T10:41:23;14.93;56.69
69938;DHT22;57248;47.320;15.998;2024-03-06T10:43:56;19.92;49.02
69938;DHT22;57248;47.320;15.998;2024-03-06T10:46:30;21.73;43.77
69938;DHT22;57248;47.320;15.998;2024-03-06T10:49:04;20.96;45.75
69938;DHT22;57248;47.320;15.998;2024-03-06T10:51:39;20.85;43.71
69938;DHT22;57248;47.320;15.998;2024-03-06T10:54:14;20.48;45.61
69938;DHT22;57248;47.320;15.998;2024-03-06T10:56:40;23.37;41.71
69938;DHT22;57248;47.320;15.998;2024-03-06T10:59:15;25.47;39.82
69938;DHT22;57248;47.320;15.998;2024-03-06T11:01:49;24.91;39.83
69938;DHT22;57248;47.320;15.998;2024-03-06T11:04:31;23.55;40.27
69938;DHT22;57248;47.320;15.998;2024-03-06T11:07:06;24.71;37.93
69938;DHT22;57248;47.320;15.998;2024-03-06T11:09:38;23.38;38.80
69938;DHT22;57248;47.320;15.998;2024-03-06T11:12:11;26.00;37.45
69938;DHT22;57248;47.320;15.998;2024-03-06T11:14:38;24.39;38.29
69938;DHT22;57248;47.320;15.998;2024-03-06T11:17:11;24.01;38.72
69938;DHT22;57248;47.320;15.998;2024-03-06T11:28:28;22.97;37.92
69938;DHT22;57248;47.320;15.998;2024-03-06T11:31:02;24.05;39.75
69938;DHT22;57248;47.320;15.998;2024-03-06T11:36:18;21.76;39.65
69938;DHT22;57248;47.320;15.998;2024-03-06T11:39:05;20.13;41.82
69938;DHT22;57248;47.320;15.998;2024-03-06T11:44:20;21.83;40.50
69938;DHT22;57248;47.320;15.998;2024-03-06T11:47:00;20.08;43.14
69938;DHT22;57248;47.320;15.998;2024-03-06T11:49:33;22.85;39.29
69938;DHT22;57248;47.320;15.998;2024-03-06T11:52:10;24.52;37.89
69938;DHT22;57248;47.320;15.998;2024-03-06T11:54:51;24.10;38.16
69938;DHT22;57248;47.320;15.998;2024-03-06T11:57:23;24.04;38.39
69938;DHT22;57248;47.320;15.998;2024-03-06T12:00:02;23.89;37.86
69938;DHT22;57248;47.320;15.998;2024-03-06T12:02:38;24.27;37.64
69938;DHT22;57248;47.320;15.998;2024-03-06T12:05:05;25.34;37.42
69938;DHT22;57248;47.320;15.998;2024-03-06T12:07:47;27.97;35.34
69938;DHT22;57248;47.320;15.998;2024-03-06T12:10:21;27.77;33.25
69938;DHT22;57248;47.320;15.998;2024-03-06T12:12:46;28.72;33.39
69938;DHT22;57248;47.320;15.998;2024-03-06T12:15:18;28.43;33.83
69938;DHT22;57248;47.320;15.998;2024-03-06T12:17:52;27.76;33.49
69938;DHT22;57248;47.320;15.998;2024-03-06T12:20:24;26.85;32.73
69938;DHT22;57248;47.320;15.998;2024-03-06T12:22:57;24.35;38.12
69938;DHT22;57248;47.320;15.998;2024-03-06T12:25:31;24.19;36.38
69938;DHT22;57248;47.320;15.998;2024-03-06T12:28:07;22.44;37.33
69938;DHT22;57248;47.320;15.998;2024-03-06T12:30:42;21.84;40.78
69938;DHT22;57248;47.320;15.998;2024-03-06T12:33:18;21.03;43.03
69938;DHT22;57248;47.320;15.998;2024-03-06T12:36:05;22.28;38.60
69938;DHT22;57248;47.320;15.998;2024-03-06T12:38:39;19.24;44.74
69938;DHT22;57248;47.320;15.998;2024-03-06T12:41:05;17.81;44.20
69938;DHT22;57248;47.320;15.998;2024-03-06T12:43:37;17.59;46.20
69938;DHT22;57248;47.320;15.998;2024-03-06T12:46:03;17.20;46.08
69938;DHT22;57248;47.320;15.998;2024-03-06T12:48:35;17.66;47.29
69938;DHT22;57248;47.320;15.998;2024-03-06T12:51:07;16.27;49.01
69938;DHT22;57248;47.320;15.998;2024-03-06T12:53:39;15.86;51.32
69938;DHT22;57248;47.320;15.998;2024-03-06T12:56:12;17.25;47.98
69938;DHT22;57248;47.320;15.998;2024-03-06T12:58:45;17.93;45.69
69938;DHT22;57248;47.320;15.998;2024-03-06T13:01:18;18.09;47.36
69938;DHT22;57248;47.320;15.998;2024-03-06T13:03:49;19.47;44.76
69938;DHT22;57248;47.320;15.998;2024-03-06T13:06:22;21.40;41.58
69938;DHT22;57248;47.320;15.998;2024-03-06T13:09:00;22.27;40.19
69938;DHT22;57248;47.320;15.998;2024-03-06T13:11:32;25.83;36.12
69938;DHT22;57248;47.320;15.998;2024-03-06T13:14:04;21.60;39.43
69938;DHT22;57248;47.320;15.998;2024-03-06T13:16:37;20.45;43.59
69938;DHT22;57248;47.320;15.998;2024-03-06T13:19:08;19.65;43.89
69938;DHT22;57248;47.320;15.998;2024-03-06T13:21:40;17.46;46.80
69938;DHT22;57248;47.320;15.998;2024-03-06T13:24:12;17.57;46.66
69938;DHT22;57248;47.320;15.998;2024-03-06T13:26:48;18.00;47.87
69938;DHT22;57248;47.320;15.998;2024-03-06T13:29:19;18.19;46.91
69938;DHT22;57248;47.320;15.998;2024-03-06T13:31:51;18.59;47.16
69938;DHT22;57248;47.320;15.998;2024-03-06T13:34:23;17.83;46.98
69938;DHT22;57248;47.320;15.998;2024-03-06T13:36:58;17.37;48.60
69938;DHT22;57248;47.320;15.998;2024-03-06T13:39:32;16.61;50.65
69938;DHT22;57248;47.320;15.998;2024-03-06T13:41:57;18.79;46.35
69938;DHT22;57248;47.320;15.998;2024-03-06T13:44:29;18.65;46.22
69938;DHT22;57248;47.320;15.998;2024-03-06T13:47:02;17.70;46.51
69938;DHT22;57248;47.320;15.998;2024-03-06T13:49:39;17.32;48.30
69938;DHT22;57248;47.320;15.998;2024-03-06T13:52:11;17.56;47.44
69938;DHT22;57248;47.320;15.998;2024-03-06T13:54:47;16.51;52.00
69938;DHT22;57248;47.320;15.998;2024-03-06T13:57:21;15.73;49.30
69938;DHT22;57248;47.320;15.998;2024-03-06T13:59:54;15.23;51.49
69938;DHT22;57248;47.320;15.998;2024-03-06T14:02:37;16.17;49.71
69938;DHT22;57248;47.320;15.998;2024-03-06T14:05:08;15.73;52.53
69938;DHT22;57248;47.320;15.998;2024-03-06T14:07:47;15.45;54.60
69938;DHT22;57248;47.320;15.998;2024-03-06T14:10:22;15.51;50.79
69938;DHT22;57248;47.320;15.998;2024-03-06T14:12:55;15.49;52.68
69938;DHT22;57248;47.320;15.998;2024-03-06T14:15:28;15.28;51.78
69938;DHT22;57248;47.320;15.998;2024-03-06T14:18:02;14.73;51.88
69938;DHT22;57248;47.320;15.998;2024-03-06T14:20:34;15.14;51.08
69938;DHT22;57248;47.320;15.998;2024-03-06T14:23:08;14.49;54.11
69938;DHT22;57248;47.320;15.998;2024-03-06T14:25:39;14.39;55.45
69938;DHT22;57248;47.320;15.998;2024-03-06T14:28:13;14.58;53.43
69938;DHT22;57248;47.320;15.998;2024-03-06T14:30:38;14.25;54.50
69938;DHT22;57248;47.320;15.998;2024-03-06T14:33:10;13.46;55.61
69938;DHT22;57248;47.320;15.998;2024-03-06T14:35:44;13.87;55.75
69938;DHT22;57248;47.320;15.998;2024-03-06T14:38:17;14.25;54.68
69938;DHT22;57248;47.320;15.998;2024-03-06T14:40:49;14.11;55.63
69938;DHT22;57248;47.320;15.998;2024-03-06T14:43:22;13.98;55.10
69938;DHT22;57248;47.320;15.998;2024-03-06T14:45:54;13.87;55.57
69938;DHT22;57248;47.320;15.998;2024-03-06T14:48:27;12.91;59.55
69938;DHT22;57248;47.320;15.998;2024-03-06T14:51:02;13.09;57.83
69938;DHT22;57248;47.320;15.998;2024-03-06T14:53:34;13.13;59.76
69938;DHT22;57248;47.320;15.998;2024-03-06T14:56:09;12.74;58.75
69938;DHT22;57248;47.320;15.998;2024-03-06T14:58:44;12.62;59.29
69938;DHT22;57248;47.320;15.998;2024-03-06T15:01:09;12.09;59.95
69938;DHT22;57248;47.320;15.998;2024-03-06T15:03:41;12.10;60.25
69938;DHT22;57248;47.320;15.998;2024-03-06T15:06:13;11.90;61.80
69938;DHT22;57248;47.320;15.998;2024-03-06T15:08:59;12.19;61.45
69938;DHT22;57248;47.320;15.998;2024-03-06T15:11:33;12.20;60.63
69938;DHT22;57248;47.320;15.998;2024-03-06T15:14:04;12.10;59.79
69938;DHT22;57248;47.320;15.998;2024-03-06T15:16:38;12.03;60.47
69938;DHT22;57248;47.320;15.998;2024-03-06T15:19:14;11.87;60.92
69938;DHT22;57248;47.320;15.998;2024-03-06T15:21:47;12.36;61.07
69938;DHT22;57248;47.320;15.998;2024-03-06T15:24:19;12.01;61.98
69938;DHT22;57248;47.320;15.998;2024-03-06T15:26:53;11.52;62.83
69938;DHT22;57248;47.320;15.998;2024-03-06T15:29:33;11.27;62.29
69938;DHT22;57248;47.320;15.998;2024-03-06T15:32:06;11.35;62.20
69938;DHT22;57248;47.320;15.998;2024-03-06T15:34:37;11.39;62.94
69938;DHT22;57248;47.320;15.998;2024-03-06T15:37:09;11.38;62.27
69938;DHT22;57248;47.320;15.998;2024-03-06T15:39:42;11.20;63.09
69938;DHT22;57248;47.320;15.998;2024-03-06T15:42:14;11.28;62.68
69938;DHT22;57248;47.320;15.998;2024-03-06T15:44:49;10.99;63.51
69938;DHT22;57248;47.320;15.998;2024-03-06T15:47:25;10.97;63.63
69938;DHT22;57248;47.320;15.998;2024-03-06T15:49:51;10.77;64.15
69938;DHT22;57248;47.320;15.998;2024-03-06T15:52:23;10.39;66.21
69938;DHT22;57248;47.320;15.998;2024-03-06T15:54:55;10.23;65.51
69938;DHT22;57248;47.320;15.998;2024-03-06T15:57:28;10.39;65.30
69938;DHT22;57248;47.320;15.998;2024-03-06T16:00:02;10.19;65.92
69938;DHT22;57248;47.320;15.998;2024-03-06T16:02:39;10.12;66.00
69938;DHT22;57248;47.320;15.998;2024-03-06T16:05:05;10.06;66.18
69938;DHT22;57248;47.320;15.998;2024-03-06T16:07:39;10.06;66.99
69938;DHT22;57248;47.320;15.998;2024-03-06T16:10:11;9.82;67.39